Time;durP1;ratioP1;P1;durP2;ratioP2;P2;SDS_P1;SDS_P2;PMS_P1;PMS_P2;Temp;Humidity;BMP_temperature;BMP_pressure;BME280_temperature;BME280_humidity;BME280_pressure;Samples;Min_cycle;Max_cycle;Signal;HPM_P1;HPM_P2
2023/12/13 00:00:15;;;;;;;;;;;;;;;-144.99;100.00;52668.22;5063208;28;19968;-73
2023/12/13 00:02:43;;;;;;;;;;;;;;;-144.99;100.00;52723.28;5066386;28;20033;-75
2023/12/13 00:05:09;;;;;;;;;;;;;;;-144.99;100.00;52678.44;5069503;28;19931;-74
2023/12/13 00:07:36;;;;;;;;;;;;;;;-144.99;100.00;52700.84;5058654;28;19983;-76
2023/12/13 00:10:04;;;;;;;;;;;;;;;-144.99;100.00;52696.78;5065481;28;19960;-77
2023/12/13 00:12:30;;;;;;;;;;;;;;;-144.99;100.00;52688.63;5068920;28;19924;-77
2023/12/13 00:14:57;;;;;;;;;;;;;;;-144.99;100.00;52715.13;5072325;28;19952;-77
2023/12/13 00:17:23;;;;;;;;;;;;;;;-144.99;100.00;52651.94;5081350;28;19955;-77
2023/12/13 00:19:51;;;;;;;;;;;;;;;-144.99;100.00;52684.53;5070911;28;19931;-76
2023/12/13 00:22:17;;;;;;;;;;;;;;;-144.99;100.00;52696.78;5068123;28;20390;-76
2023/12/13 00:24:44;;;;;;;;;;;;;;;-144.99;100.00;52696.78;5068319;28;20384;-76
2023/12/13 00:27:10;;;;;;;;;;;;;;;-144.99;100.00;52688.63;5066077;28;20296;-75
2023/12/13 00:29:37;;;;;;;;;;;;;;;-144.99;100.00;52680.47;5069630;28;19928;-78
2023/12/13 00:32:04;;;;;;;;;;;;;;;-144.99;100.00;52684.53;5069251;28;19928;-76
2023/12/13 00:34:31;;;;;;;;;;;;;;;-144.99;100.00;52676.38;5061338;28;20569;-77
2023/12/13 00:36:59;;;;;;;;;;;;;;;-144.99;100.00;52688.63;5065012;28;20024;-77
2023/12/13 00:39:25;;;;;;;;;;;;;;;-144.99;100.00;52668.22;5068844;28;19980;-76
2023/12/13 00:41:51;;;;;;;;;;;;;;;-144.99;100.00;52686.59;5069254;28;19981;-74
2023/12/13 00:44:17;;;;;;;;;;;;;;;-144.99;100.00;52704.94;5068738;28;20007;-75
2023/12/13 00:46:44;;;;;;;;;;;;;;;-144.99;100.00;52696.78;5069692;28;20024;-75
2023/12/13 00:49:10;;;;;;;;;;;;;;;-144.99;100.00;52680.47;5068589;28;19925;-74
2023/12/13 00:51:36;;;;;;;;;;;;;;;-144.99;100.00;52709.00;5082113;28;19935;-73
2023/12/13 00:54:04;;;;;;;;;;;;;;;-144.99;100.00;52696.78;5070785;28;19971;-74
2023/12/13 00:56:31;;;;;;;;;;;;;;;-144.99;100.00;52698.81;5070534;28;20007;-77
2023/12/13 00:58:58;;;;;;;;;;;;;;;-144.99;100.00;52664.16;5068512;28;19932;-74
2023/12/13 01:01:24;;;;;;;;;;;;;;;-144.99;100.00;52682.50;5057374;28;19924;-72
2023/12/13 01:03:51;;;;;;;;;;;;;;;-144.99;100.00;52682.50;5070552;28;19925;-76
2023/12/13 01:06:17;;;;;;;;;;;;;;;-144.99;100.00;52706.97;5067930;28;19978;-75
2023/12/13 01:08:44;;;;;;;;;;;;;;;-144.99;100.00;52651.94;5070523;28;20364;-78
2023/12/13 01:11:12;;;;;;;;;;;;;;;-144.99;100.00;52684.53;5069392;28;19993;-74
2023/12/13 01:13:38;;;;;;;;;;;;;;;-144.99;100.00;52713.09;5067815;28;20007;-76
2023/12/13 01:16:05;;;;;;;;;;;;;;;-144.99;100.00;52670.28;5068031;28;20451;-74
2023/12/13 01:18:31;;;;;;;;;;;;;;;-144.99;100.00;52676.38;5065211;28;20019;-73
2023/12/13 01:20:58;;;;;;;;;;;;;;;-144.99;100.00;52668.22;5065507;28;19967;-77
2023/12/13 01:25:52;;;;;;;;;;;;;;;-144.99;100.00;52656.00;5098983;27;20003;-77
2023/12/13 01:28:20;;;;;;;;;;;;;;;-144.99;100.00;52686.59;5121323;27;20372;-75
2023/12/13 01:30:46;;;;;;;;;;;;;;;-144.99;100.00;52694.72;5102328;27;20447;-75
2023/12/13 01:33:13;;;;;;;;;;;;;;;-144.99;100.00;52660.09;5081304;28;20007;-74
2023/12/13 01:35:39;;;;;;;;;;;;;;;-144.99;100.00;52668.22;5109965;28;20018;-75
2023/12/13 01:38:06;;;;;;;;;;;;;;;-144.99;100.00;52676.38;5090738;28;20046;-76
2023/12/13 01:40:32;;;;;;;;;;;;;;;-144.99;100.00;52700.84;5110049;28;19959;-75
2023/12/13 01:42:58;;;;;;;;;;;;;;;-144.99;100.00;52676.38;5111212;27;20463;-75
2023/12/13 01:45:26;;;;;;;;;;;;;;;-144.99;100.00;52664.16;5111165;28;19932;-75
2023/12/13 01:47:53;;;;;;;;;;;;;;;-144.99;100.00;52684.53;5109553;28;19931;-75
2023/12/13 01:50:19;;;;;;;;;;;;;;;-144.99;100.00;52700.84;5109967;28;20022;-75
2023/12/13 01:52:46;;;;;;;;;;;;;;;-144.99;100.00;52696.78;5107058;28;19932;-76
2023/12/13 01:55:12;;;;;;;;;;;;;;;-144.99;100.00;52656.00;5116851;27;19938;-77
2023/12/13 01:57:39;;;;;;;;;;;;;;;-144.99;100.00;52656.00;5121031;27;19975;-78
2023/12/13 02:00:07;;;;;;;;;;;;;;;-144.99;100.00;52709.00;5124424;27;19933;-78
2023/12/13 02:02:35;;;;;;;;;;;;;;;-144.99;100.00;52700.84;5116451;27;19974;-77
2023/12/13 02:05:02;;;;;;;;;;;;;;;-144.99;100.00;52690.66;5120234;27;19930;-77
2023/12/13 02:07:29;;;;;;;;;;;;;;;-144.99;100.00;52680.47;5121430;27;19924;-76
2023/12/13 02:09:55;;;;;;;;;;;;;;;-144.99;100.00;52670.28;5113606;28;19978;-76
2023/12/13 02:12:22;;;;;;;;;;;;;;;-144.99;100.00;52688.63;5124617;28;19962;-76
2023/12/13 02:14:48;;;;;;;;;;;;;;;-144.99;100.00;52692.69;5135265;27;19986;-76
2023/12/13 02:17:14;;;;;;;;;;;;;;;-144.99;100.00;52694.72;5133961;27;19975;-76
2023/12/13 02:19:42;;;;;;;;;;;;;;;-144.99;100.00;52717.16;5133396;27;19923;-75
2023/12/13 02:22:10;;;;;;;;;;;;;;;-144.99;100.00;52668.22;5118215;28;19982;-76
2023/12/13 02:24:38;;;;;;;;;;;;;;;-144.99;100.00;52688.63;5118742;27;20213;-75
2023/12/13 02:27:05;;;;;;;;;;;;;;;-144.99;100.00;52680.47;5123530;27;19923;-75
2023/12/13 02:29:31;;;;;;;;;;;;;;;-144.99;100.00;52680.47;5114258;28;20395;-75
2023/12/13 02:31:58;;;;;;;;;;;;;;;-144.99;100.00;52668.22;5116600;27;19984;-75
2023/12/13 02:34:24;;;;;;;;;;;;;;;-144.99;100.00;52653.97;5117958;27;20439;-75
2023/12/13 02:36:51;;;;;;;;;;;;;;;-144.99;100.00;52692.69;5111797;28;20037;-76
2023/12/13 02:39:19;;;;;;;;;;;;;;;-144.99;100.00;52692.69;5113351;27;19995;-75
2023/12/13 02:41:45;;;;;;;;;;;;;;;-144.99;100.00;52768.13;5112373;28;19928;-75
2023/12/13 02:44:11;;;;;;;;;;;;;;;-144.99;100.00;52719.19;5114968;27;19974;-75
2023/12/13 02:46:38;;;;;;;;;;;;;;;-144.99;100.00;52696.78;5115340;27;19967;-75
2023/12/13 02:49:04;;;;;;;;;;;;;;;-144.99;100.00;52694.72;5112802;28;20015;-75
2023/12/13 02:51:31;;;;;;;;;;;;;;;-144.99;100.00;52709.00;5111276;28;20026;-75
2023/12/13 02:53:57;;;;;;;;;;;;;;;-144.99;100.00;52690.66;5112737;28;20014;-75
2023/12/13 02:56:25;;;;;;;;;;;;;;;-144.99;100.00;52668.22;5115398;27;20456;-76
2023/12/13 02:58:52;;;;;;;;;;;;;;;-144.99;100.00;52717.16;5106471;27;19931;-75
2023/12/13 03:01:18;;;;;;;;;;;;;;;-144.99;100.00;52749.78;5116609;27;19928;-75
2023/12/13 03:03:44;;;;;;;;;;;;;;;-144.99;100.00;52704.94;5093888;28;20011;-74
2023/12/13 03:06:11;;;;;;;;;;;;;;;-144.99;100.00;52684.53;5112636;27;19980;-74
2023/12/13 03:08:37;;;;;;;;;;;;;;;-144.99;100.00;52741.63;5111437;28;20410;-75
2023/12/13 03:11:04;;;;;;;;;;;;;;;-144.99;100.00;52668.22;5112818;28;19962;-75
2023/12/13 03:13:31;;;;;;;;;;;;;;;-144.99;100.00;52670.28;5110319;28;19963;-74
2023/12/13 03:15:58;;;;;;;;;;;;;;;-144.99;100.00;52672.31;5114360;27;19927;-75
2023/12/13 03:18:24;;;;;;;;;;;;;;;-144.99;100.00;52721.22;5114399;27;20452;-74
2023/12/13 03:20:51;;;;;;;;;;;;;;;-144.99;100.00;52676.38;5113506;28;19976;-74
2023/12/13 03:23:17;;;;;;;;;;;;;;;-144.99;100.00;52680.47;5114545;28;20058;-73
2023/12/13 03:25:44;;;;;;;;;;;;;;;-144.99;100.00;52688.63;5126651;27;19924;-75
2023/12/13 03:28:10;;;;;;;;;;;;;;;-144.99;100.00;52709.00;5139197;27;19945;-75
2023/12/13 03:30:38;;;;;;;;;;;;;;;-144.99;100.00;52656.00;5137049;27;19939;-74
2023/12/13 03:33:04;;;;;;;;;;;;;;;-144.99;100.00;52694.72;5126830;28;19924;-74
2023/12/13 03:35:31;;;;;;;;;;;;;;;-144.99;100.00;52704.94;5128355;28;19930;-74
2023/12/13 03:37:57;;;;;;;;;;;;;;;-144.99;100.00;52709.00;5133542;27;19923;-74
2023/12/13 03:40:24;;;;;;;;;;;;;;;-144.99;100.00;52676.38;5141536;27;19931;-74
2023/12/13 03:42:50;;;;;;;;;;;;;;;-144.99;100.00;52672.31;5128107;28;19943;-74
2023/12/13 03:45:16;;;;;;;;;;;;;;;-144.99;100.00;52688.63;5130690;27;19957;-74
2023/12/13 03:47:45;;;;;;;;;;;;;;;-144.99;100.00;52684.53;5138826;27;19928;-75
2023/12/13 03:50:11;;;;;;;;;;;;;;;-144.99;100.00;52729.38;5145868;27;19965;-75
2023/12/13 03:52:37;;;;;;;;;;;;;;;-144.99;100.00;52725.31;5134028;27;20342;-74
2023/12/13 03:55:04;;;;;;;;;;;;;;;-144.99;100.00;52696.78;5142589;27;19923;-77
2023/12/13 03:57:31;;;;;;;;;;;;;;;-144.99;100.00;52690.66;5116336;28;19924;-76
2023/12/13 03:59:57;;;;;;;;;;;;;;;-144.99;100.00;52694.72;5130463;28;19927;-76
2023/12/13 04:02:24;;;;;;;;;;;;;;;-144.99;100.00;52704.94;5130592;27;19927;-76
2023/12/13 04:04:52;;;;;;;;;;;;;;;-144.99;100.00;52660.09;5143037;27;19927;-76
2023/12/13 04:07:19;;;;;;;;;;;;;;;-144.99;100.00;52709.00;5135081;27;19949;-75
2023/12/13 04:09:45;;;;;;;;;;;;;;;-144.99;100.00;52709.00;5131208;28;19949;-76
2023/12/13 04:12:12;;;;;;;;;;;;;;;-144.99;100.00;52702.88;5135927;27;20127;-75
2023/12/13 04:14:38;;;;;;;;;;;;;;;-144.99;100.00;52704.94;5132930;28;19978;-77
2023/12/13 04:17:05;;;;;;;;;;;;;;;-144.99;100.00;52713.09;5112622;28;20006;-75
2023/12/13 04:19:31;;;;;;;;;;;;;;;-144.99;100.00;52723.28;5115969;27;20283;-76
2023/12/13 04:21:59;;;;;;;;;;;;;;;-144.99;100.00;52688.63;5115522;27;20010;-75
2023/12/13 04:24:25;;;;;;;;;;;;;;;-144.99;100.00;52647.84;5111344;28;20014;-76
2023/12/13 04:26:52;;;;;;;;;;;;;;;-144.99;100.00;52702.88;5117633;27;19924;-75
2023/12/13 04:29:18;;;;;;;;;;;;;;;-144.99;100.00;52686.59;5119299;27;20030;-74
2023/12/13 04:31:45;;;;;;;;;;;;;;;-144.99;100.00;52696.78;5120315;27;19966;-76
2023/12/13 04:34:11;;;;;;;;;;;;;;;-144.99;100.00;52670.28;5122992;27;19977;-76
2023/12/13 04:36:38;;;;;;;;;;;;;;;-144.99;100.00;52713.09;5115884;28;19923;-77
2023/12/13 04:39:06;;;;;;;;;;;;;;;-144.99;100.00;52678.44;5119449;27;19924;-76
2023/12/13 04:41:32;;;;;;;;;;;;;;;-144.99;100.00;52668.22;5113501;28;19970;-76
2023/12/13 04:43:59;;;;;;;;;;;;;;;-144.99;100.00;52711.03;5110955;27;19923;-76
2023/12/13 04:46:26;;;;;;;;;;;;;;;-144.99;100.00;52692.69;5113284;28;19927;-75
2023/12/13 04:48:52;;;;;;;;;;;;;;;-144.99;100.00;52668.22;5115768;27;19974;-76
2023/12/13 04:51:18;;;;;;;;;;;;;;;-144.99;100.00;52739.56;5116474;27;20016;-76
2023/12/13 04:53:45;;;;;;;;;;;;;;;-144.99;100.00;52721.22;5119190;27;19967;-76
2023/12/13 04:56:13;;;;;;;;;;;;;;;-144.99;100.00;52702.88;5123817;27;19952;-76
2023/12/13 04:58:40;;;;;;;;;;;;;;;-144.99;100.00;52713.09;5109237;27;20030;-77
2023/12/13 05:01:07;;;;;;;;;;;;;;;-144.99;100.00;52692.69;5121838;27;20007;-77
2023/12/13 05:03:33;;;;;;;;;;;;;;;-144.99;100.00;52696.78;5119924;27;19971;-77
2023/12/13 05:05:59;;;;;;;;;;;;;;;-144.99;100.00;52668.22;5110273;28;19931;-75
2023/12/13 05:08:30;;;;;;;;;;;;;;;-144.99;100.00;52692.69;5109115;28;20134;-75
2023/12/13 05:10:58;;;;;;;;;;;;;;;-144.99;100.00;52704.94;5110312;27;19927;-75
2023/12/13 05:13:27;;;;;;;;;;;;;;;-144.99;100.00;52721.22;5110274;28;19935;-76
2023/12/13 05:15:53;;;;;;;;;;;;;;;-144.99;100.00;52668.22;5114775;27;19936;-76
2023/12/13 05:18:19;;;;;;;;;;;;;;;-144.99;100.00;52719.19;5113665;27;20010;-76
2023/12/13 05:20:48;;;;;;;;;;;;;;;-144.99;100.00;52684.53;5110659;27;19974;-76
2023/12/13 05:23:14;;;;;;;;;;;;;;;-144.99;100.00;52709.00;5121741;27;20387;-76
2023/12/13 05:25:41;;;;;;;;;;;;;;;-144.99;100.00;52709.00;5109707;28;19951;-75
2023/12/13 05:28:08;;;;;;;;;;;;;;;-144.99;100.00;52668.22;5108310;28;20019;-75
2023/12/13 05:30:36;;;;;;;;;;;;;;;-144.99;100.00;52676.38;5109585;28;19961;-75
2023/12/13 05:33:02;;;;;;;;;;;;;;;-144.99;100.00;52709.00;5111008;27;19946;-75
2023/12/13 05:35:28;;;;;;;;;;;;;;;-144.99;100.00;52680.47;5110055;28;19930;-75
2023/12/13 05:37:55;;;;;;;;;;;;;;;-144.99;100.00;52688.63;5109745;28;19973;-75
2023/12/13 05:40:22;;;;;;;;;;;;;;;-144.99;100.00;52696.78;5115609;28;20025;-76
2023/12/13 05:42:48;;;;;;;;;;;;;;;-144.99;100.00;52688.63;5107625;28;19935;-75
2023/12/13 05:45:15;;;;;;;;;;;;;;;-144.99;100.00;52688.63;5109679;28;19976;-75
2023/12/13 05:47:42;;;;;;;;;;;;;;;-144.99;100.00;52678.44;5112265;28;20010;-75
2023/12/13 05:50:09;;;;;;;;;;;;;;;-144.99;100.00;52680.47;5109795;28;20475;-75
2023/12/13 05:52:36;;;;;;;;;;;;;;;-144.99;100.00;52709.00;5108023;28;19924;-75
2023/12/13 05:55:03;;;;;;;;;;;;;;;-144.99;100.00;52668.22;5116057;28;19923;-75
2023/12/13 05:57:29;;;;;;;;;;;;;;;-144.99;100.00;52696.78;5114112;28;20371;-76
2023/12/13 05:59:55;;;;;;;;;;;;;;;-144.99;100.00;52700.84;5121168;28;19971;-75
2023/12/13 06:02:22;;;;;;;;;;;;;;;-144.99;100.00;52713.09;5120665;28;20449;-77
2023/12/13 06:04:57;;;;;;;;;;;;;;;-144.99;100.00;52717.16;5109526;28;20046;-77
2023/12/13 06:07:24;;;;;;;;;;;;;;;-144.99;100.00;52713.09;5110521;28;19923;-76
2023/12/13 06:09:50;;;;;;;;;;;;;;;-144.99;100.00;52700.84;5115115;28;19930;-78
2023/12/13 06:12:17;;;;;;;;;;;;;;;-144.99;100.00;52709.00;5107001;28;20279;-77
2023/12/13 06:14:43;;;;;;;;;;;;;;;-144.99;100.00;52700.84;5109496;28;19977;-78
2023/12/13 06:17:10;;;;;;;;;;;;;;;-144.99;100.00;52700.84;5111023;28;19966;-77
2023/12/13 06:19:40;;;;;;;;;;;;;;;-144.99;100.00;52651.94;4389937;28;10000828;-77
2023/12/13 06:22:12;;;;;;;;;;;;;;;-144.99;100.00;52645.81;5108496;28;19928;-78
2023/12/13 06:24:39;;;;;;;;;;;;;;;-144.99;100.00;52694.72;5109332;28;19979;-79
2023/12/13 06:27:08;;;;;;;;;;;;;;;-144.99;100.00;52676.38;5121198;28;19938;-80
2023/12/13 06:29:38;;;;;;;;;;;;;;;-144.99;100.00;52698.81;5108108;28;20497;-79
2023/12/13 06:32:05;;;;;;;;;;;;;;;-144.99;100.00;52702.88;5112492;28;20374;-79
2023/12/13 06:34:34;;;;;;;;;;;;;;;-144.99;100.00;52643.78;5106920;28;19932;-79
2023/12/13 06:37:00;;;;;;;;;;;;;;;-144.99;100.00;52688.63;5107082;28;19928;-79
2023/12/13 06:39:28;;;;;;;;;;;;;;;-144.99;100.00;52694.72;5109180;28;19981;-79
2023/12/13 06:41:55;;;;;;;;;;;;;;;-144.99;100.00;52704.94;5116821;27;19935;-79
2023/12/13 06:44:22;;;;;;;;;;;;;;;-144.99;100.00;52709.00;5113940;27;20349;-80
2023/12/13 06:47:01;;;;;;;;;;;;;;;-144.99;100.00;52713.09;5118657;27;20020;-79
2023/12/13 06:49:30;;;;;;;;;;;;;;;-144.99;100.00;52723.28;5114367;27;19996;-79
2023/12/13 06:51:57;;;;;;;;;;;;;;;-144.99;100.00;52715.13;5114910;27;19934;-80
2023/12/13 06:54:25;;;;;;;;;;;;;;;-144.99;100.00;52709.00;5112069;27;20025;-78
2023/12/13 06:56:53;;;;;;;;;;;;;;;-144.99;100.00;52700.84;5116764;27;19989;-79
2023/12/13 06:59:28;;;;;;;;;;;;;;;-144.99;100.00;52729.38;5109775;28;20022;-78
2023/12/13 07:01:55;;;;;;;;;;;;;;;-144.99;100.00;52717.16;5111014;27;20585;-79
2023/12/13 07:04:21;;;;;;;;;;;;;;;-144.99;100.00;52692.69;5109216;27;19985;-79
2023/12/13 07:06:49;;;;;;;;;;;;;;;-144.99;100.00;52651.94;5113187;27;20010;-78
2023/12/13 07:09:18;;;;;;;;;;;;;;;-144.99;100.00;52729.38;5114855;27;20752;-77
2023/12/13 07:11:46;;;;;;;;;;;;;;;-144.99;100.00;52696.78;5109623;28;19928;-79
2023/12/13 07:14:21;;;;;;;;;;;;;;;-144.99;100.00;52688.63;5111355;27;19931;-78
2023/12/13 07:16:48;;;;;;;;;;;;;;;-144.99;100.00;52680.47;5111868;27;19979;-79
2023/12/13 07:19:14;;;;;;;;;;;;;;;-144.99;100.00;52692.69;5117402;27;19923;-79
2023/12/13 07:21:41;;;;;;;;;;;;;;;-144.99;100.00;52704.94;5109003;28;19955;-79
2023/12/13 07:24:07;;;;;;;;;;;;;;;-144.99;100.00;52711.03;5126942;22;19930;-72
2023/12/13 07:26:34;;;;;;;;;;;;;;;-144.99;100.00;52684.53;5103946;27;19928;-72
2023/12/13 07:29:00;;;;;;;;;;;;;;;-144.99;100.00;52674.34;5104602;28;20002;-71
2023/12/13 07:31:28;;;;;;;;;;;;;;;-144.99;100.00;52709.00;5093706;28;19942;-71
2023/12/13 07:33:55;;;;;;;;;;;;;;;-144.99;100.00;52702.88;5111093;28;20412;-70
2023/12/13 07:36:22;;;;;;;;;;;;;;;-144.99;100.00;52680.47;5109767;28;20495;-71
2023/12/13 07:38:48;;;;;;;;;;;;;;;-144.99;100.00;52696.78;5108279;28;20027;-71
2023/12/13 07:41:15;;;;;;;;;;;;;;;-144.99;100.00;52664.16;5106661;28;20075;-72
2023/12/13 07:43:41;;;;;;;;;;;;;;;-144.99;100.00;52725.31;5102450;28;19976;-70
2023/12/13 07:46:08;;;;;;;;;;;;;;;-144.99;100.00;52635.63;5110489;28;20026;-71
2023/12/13 07:48:36;;;;;;;;;;;;;;;-144.99;100.00;52668.22;5097315;28;20022;-71
2023/12/13 07:51:03;;;;;;;;;;;;;;;-144.99;100.00;52688.63;5106519;28;19927;-74
2023/12/13 07:53:29;;;;;;;;;;;;;;;-144.99;100.00;52692.69;5093572;28;19971;-70
2023/12/13 07:55:56;;;;;;;;;;;;;;;-144.99;100.00;52692.69;5103783;28;19993;-72
2023/12/13 07:58:22;;;;;;;;;;;;;;;-144.99;100.00;52702.88;5098829;28;19987;-69
2023/12/13 08:00:49;;;;;;;;;;;;;;;-144.99;100.00;52680.47;5109184;28;19975;-70
2023/12/13 08:03:15;;;;;;;;;;;;;;;-144.99;100.00;52690.66;5100122;28;20433;-70
2023/12/13 08:05:43;;;;;;;;;;;;;;;-144.99;100.00;52729.38;5108415;28;20329;-72
2023/12/13 08:08:10;;;;;;;;;;;;;;;-144.99;100.00;52717.16;5109680;28;19965;-71
2023/12/13 08:10:36;;;;;;;;;;;;;;;-144.99;100.00;52729.38;5100447;28;20299;-71
2023/12/13 08:13:03;;;;;;;;;;;;;;;-144.99;100.00;52704.94;5105229;28;20194;-71
2023/12/13 08:15:29;;;;;;;;;;;;;;;-144.99;100.00;52660.09;5103534;28;19997;-72
2023/12/13 08:17:56;;;;;;;;;;;;;;;-144.99;100.00;52704.94;5106734;28;20026;-70
2023/12/13 08:20:23;;;;;;;;;;;;;;;-144.99;100.00;52729.38;5108512;28;20014;-73
2023/12/13 08:22:50;;;;;;;;;;;;;;;-144.99;100.00;52690.66;5106595;28;19971;-72
2023/12/13 08:25:17;;;;;;;;;;;;;;;-144.99;100.00;52741.63;5106317;28;20008;-70
2023/12/13 08:27:43;;;;;;;;;;;;;;;-144.99;100.00;52702.88;5105046;28;19928;-71
2023/12/13 08:30:10;;;;;;;;;;;;;;;-144.99;100.00;52696.78;5099965;28;19971;-73
2023/12/13 08:32:37;;;;;;;;;;;;;;;-144.99;100.00;52737.53;5106964;28;20098;-71
2023/12/13 08:35:04;;;;;;;;;;;;;;;-144.99;100.00;52680.47;5106951;28;19993;-71
2023/12/13 08:37:30;;;;;;;;;;;;;;;-144.99;100.00;52684.53;5106843;28;20299;-71
2023/12/13 08:39:58;;;;;;;;;;;;;;;-144.99;100.00;52688.63;5100482;28;20022;-71
2023/12/13 08:42:25;;;;;;;;;;;;;;;-144.99;100.00;52672.31;5109442;28;20416;-71
2023/12/13 08:44:51;;;;;;;;;;;;;;;-144.99;100.00;52696.78;5107596;28;19924;-72
2023/12/13 08:47:19;;;;;;;;;;;;;;;-144.99;100.00;52696.78;5109629;28;19924;-71
2023/12/13 08:49:46;;;;;;;;;;;;;;;-144.99;100.00;52717.16;5079858;28;19935;-71
2023/12/13 08:52:15;;;;;;;;;;;;;;;-144.99;100.00;52749.78;5103649;28;19935;-73
2023/12/13 08:54:41;;;;;;;;;;;;;;;-144.99;100.00;52717.16;5101147;28;19935;-73
2023/12/13 08:57:09;;;;;;;;;;;;;;;-144.99;100.00;52692.69;5096575;28;19928;-72
2023/12/13 08:59:36;;;;;;;;;;;;;;;-144.99;100.00;52680.47;5105865;28;19927;-70
2023/12/13 09:02:02;;;;;;;;;;;;;;;-144.99;100.00;52680.47;5109254;28;20308;-71
2023/12/13 09:04:29;;;;;;;;;;;;;;;-144.99;100.00;52700.84;5109901;28;20291;-71
2023/12/13 09:06:55;;;;;;;;;;;;;;;-144.99;100.00;52757.94;5101690;28;19931;-72
2023/12/13 09:09:22;;;;;;;;;;;;;;;-144.99;100.00;52704.94;5104200;28;19927;-71
2023/12/13 09:11:48;;;;;;;;;;;;;;;-144.99;100.00;52717.16;5101787;28;20034;-71
2023/12/13 09:14:16;;;;;;;;;;;;;;;-144.99;100.00;52713.09;5100940;28;20572;-72
2023/12/13 09:16:43;;;;;;;;;;;;;;;-144.99;100.00;52656.00;5091631;28;20466;-73
2023/12/13 09:19:10;;;;;;;;;;;;;;;-144.99;100.00;52704.94;5108520;28;19950;-72
2023/12/13 09:21:36;;;;;;;;;;;;;;;-144.99;100.00;52684.53;5101551;28;19950;-70
2023/12/13 09:24:04;;;;;;;;;;;;;;;-144.99;100.00;52698.81;5109107;28;19928;-71
2023/12/13 09:26:31;;;;;;;;;;;;;;;-144.99;100.00;52702.88;5102340;28;19927;-72
2023/12/13 09:28:58;;;;;;;;;;;;;;;-144.99;100.00;52688.63;5108635;28;19924;-71
2023/12/13 09:31:26;;;;;;;;;;;;;;;-144.99;100.00;52684.53;5098672;28;19967;-71
2023/12/13 09:33:52;;;;;;;;;;;;;;;-144.99;100.00;52688.63;5093928;28;19959;-69
2023/12/13 09:36:19;;;;;;;;;;;;;;;-144.99;100.00;52680.47;5096405;28;19934;-71
2023/12/13 09:38:46;;;;;;;;;;;;;;;-144.99;100.00;52688.63;5101847;28;19932;-69
2023/12/13 09:41:12;;;;;;;;;;;;;;;-144.99;100.00;52709.00;5102628;28;19930;-71
2023/12/13 09:43:41;;;;;;;;;;;;;;;-144.99;100.00;52670.28;5103212;28;20010;-71
2023/12/13 09:46:09;;;;;;;;;;;;;;;-144.99;100.00;52721.22;5092572;28;19982;-71
2023/12/13 09:48:38;;;;;;;;;;;;;;;-144.99;100.00;52696.78;5100891;28;19964;-72
2023/12/13 09:51:05;;;;;;;;;;;;;;;-144.99;100.00;52749.78;5108224;28;20408;-72
2023/12/13 09:53:34;;;;;;;;;;;;;;;-144.99;100.00;52721.22;5104398;28;20305;-72
2023/12/13 09:56:02;;;;;;;;;;;;;;;-144.99;100.00;52723.28;5100101;28;20151;-70
2023/12/13 09:58:28;;;;;;;;;;;;;;;-144.99;100.00;52676.38;5103176;28;20332;-70
2023/12/13 10:00:56;;;;;;;;;;;;;;;-144.99;100.00;52696.78;5099120;28;19985;-69
2023/12/13 10:03:22;;;;;;;;;;;;;;;-144.99;100.00;52668.22;5106942;28;20488;-70
2023/12/13 10:05:52;;;;;;;;;;;;;;;-144.99;100.00;52676.38;5098781;28;20405;-71
2023/12/13 10:08:19;;;;;;;;;;;;;;;-144.99;100.00;52692.69;5108432;28;20178;-71
2023/12/13 10:10:47;;;;;;;;;;;;;;;-144.99;100.00;52680.47;5102635;28;20266;-71
2023/12/13 10:13:14;;;;;;;;;;;;;;;-144.99;100.00;52729.38;5107629;28;19928;-72
2023/12/13 10:15:40;;;;;;;;;;;;;;;-144.99;100.00;52668.22;5104979;28;19979;-72
2023/12/13 10:18:07;;;;;;;;;;;;;;;-144.99;100.00;52696.78;5098915;28;19928;-71
2023/12/13 10:20:34;;;;;;;;;;;;;;;-144.99;100.00;52704.94;5103047;28;19932;-73
2023/12/13 10:23:02;;;;;;;;;;;;;;;-144.99;100.00;52668.22;5104620;28;19972;-74
2023/12/13 10:25:30;;;;;;;;;;;;;;;-144.99;100.00;52709.00;5101476;28;19997;-73
2023/12/13 10:27:57;;;;;;;;;;;;;;;-144.99;100.00;52649.88;5106164;28;19928;-71
2023/12/13 10:30:24;;;;;;;;;;;;;;;-144.99;100.00;52692.69;5102313;28;19940;-74
2023/12/13 10:32:51;;;;;;;;;;;;;;;-144.99;100.00;52692.69;5110166;28;20128;-71
2023/12/13 10:35:19;;;;;;;;;;;;;;;-144.99;100.00;52721.22;5097768;28;19962;-71
2023/12/13 10:37:47;;;;;;;;;;;;;;;-144.99;100.00;52668.22;5103762;28;20453;-71
2023/12/13 10:40:17;;;;;;;;;;;;;;;-144.99;100.00;52676.38;5102931;28;20036;-70
2023/12/13 10:42:45;;;;;;;;;;;;;;;-144.99;100.00;52729.38;5107676;28;19928;-71
2023/12/13 10:45:12;;;;;;;;;;;;;;;-144.99;100.00;52745.69;5103155;28;19927;-70
2023/12/13 10:47:41;;;;;;;;;;;;;;;-144.99;100.00;52692.69;5106903;28;20386;-73
2023/12/13 10:50:08;;;;;;;;;;;;;;;-144.99;100.00;52676.38;5103496;28;20170;-71
2023/12/13 10:52:36;;;;;;;;;;;;;;;-144.99;100.00;52721.22;5101111;28;19962;-73
2023/12/13 10:55:03;;;;;;;;;;;;;;;-144.99;100.00;52692.69;5108799;28;20393;-71
2023/12/13 10:57:31;;;;;;;;;;;;;;;-144.99;100.00;52692.69;5098466;28;19935;-70
2023/12/13 10:59:58;;;;;;;;;;;;;;;-144.99;100.00;52696.78;5100219;28;20019;-72
2023/12/13 11:02:26;;;;;;;;;;;;;;;-144.99;100.00;52709.00;5103098;28;19932;-72
2023/12/13 11:04:53;;;;;;;;;;;;;;;-144.99;100.00;52694.72;5100237;28;20366;-73
2023/12/13 11:07:19;;;;;;;;;;;;;;;-144.99;100.00;52711.03;5102967;28;20476;-71
2023/12/13 11:09:49;;;;;;;;;;;;;;;-144.99;100.00;52729.38;5110089;28;19952;-71
2023/12/13 11:12:18;;;;;;;;;;;;;;;-144.99;100.00;52717.16;5107642;28;20022;-72
2023/12/13 11:14:48;;;;;;;;;;;;;;;-144.99;100.00;52711.03;5109717;28;19928;-72
2023/12/13 11:17:15;;;;;;;;;;;;;;;-144.99;100.00;52688.63;5100937;28;19931;-73
2023/12/13 11:19:41;;;;;;;;;;;;;;;-144.99;100.00;52664.16;5095580;28;19947;-71
2023/12/13 11:22:11;;;;;;;;;;;;;;;-144.99;100.00;52676.38;5105905;28;20359;-72
2023/12/13 11:24:40;;;;;;;;;;;;;;;-144.99;100.00;52694.72;5105569;28;19973;-71
2023/12/13 11:27:10;;;;;;;;;;;;;;;-144.99;100.00;52684.53;5100811;28;19981;-73
2023/12/13 11:29:36;;;;;;;;;;;;;;;-144.99;100.00;52688.63;5108022;28;20270;-73
2023/12/13 11:32:05;;;;;;;;;;;;;;;-144.99;100.00;52709.00;5107970;28;19950;-70
2023/12/13 11:34:32;;;;;;;;;;;;;;;-144.99;100.00;52670.28;5109469;28;20009;-71
2023/12/13 11:37:00;;;;;;;;;;;;;;;-144.99;100.00;52709.00;5109842;28;19924;-73
2023/12/13 11:39:27;;;;;;;;;;;;;;;-144.99;100.00;52717.16;5109186;28;19951;-72
2023/12/13 11:41:53;;;;;;;;;;;;;;;-144.99;100.00;52711.03;5102773;28;20287;-71
2023/12/13 11:44:20;;;;;;;;;;;;;;;-144.99;100.00;52709.00;5101172;28;19923;-74
2023/12/13 11:46:53;;;;;;;;;;;;;;;-144.99;100.00;52709.00;5105643;28;19950;-74
2023/12/13 11:49:21;;;;;;;;;;;;;;;-144.99;100.00;52713.09;5105775;28;19927;-72
2023/12/13 11:51:48;;;;;;;;;;;;;;;-144.99;100.00;52668.22;5095286;28;20510;-72
2023/12/13 11:54:15;;;;;;;;;;;;;;;-144.99;100.00;52709.00;5100032;28;20035;-73
2023/12/13 11:56:42;;;;;;;;;;;;;;;-144.99;100.00;52678.44;5105755;28;20131;-73
2023/12/13 11:59:08;;;;;;;;;;;;;;;-144.99;100.00;52725.31;5101348;28;20223;-71
2023/12/13 12:01:35;;;;;;;;;;;;;;;-144.99;100.00;52737.53;5098161;28;19955;-71
2023/12/13 12:04:02;;;;;;;;;;;;;;;-144.99;100.00;52704.94;5104475;28;19979;-70
2023/12/13 12:06:30;;;;;;;;;;;;;;;-144.99;100.00;52713.09;5104243;28;19924;-72
2023/12/13 12:09:00;;;;;;;;;;;;;;;-144.99;100.00;52680.47;5108407;28;20395;-72
2023/12/13 12:11:27;;;;;;;;;;;;;;;-144.99;100.00;52664.16;5103855;28;19966;-73
2023/12/13 12:13:55;;;;;;;;;;;;;;;-144.99;100.00;52700.84;5096483;28;19978;-72
2023/12/13 12:16:22;;;;;;;;;;;;;;;-144.99;100.00;52704.94;5102550;28;19997;-74
2023/12/13 12:18:48;;;;;;;;;;;;;;;-144.99;100.00;52680.47;5109027;28;19934;-71